Time;durP1;ratioP1;P1;durP2;ratioP2;P2;SDS_P1;SDS_P2;PMS_P1;PMS_P2;Temp;Humidity;BMP_temperature;BMP_pressure;BME280_temperature;BME280_humidity;BME280_pressure;Samples;Min_cycle;Max_cycle;Signal;HPM_P1;HPM_P2
2023/03/30 00:02:21;;;;;;;3.78;1.92;;;;;;;12.70;65.14;100560.66;5122061;28;20052;-66
2023/03/30 00:04:49;;;;;;;3.20;1.80;;;;;;;12.70;65.41;100559.84;5121425;28;20039;-66
2023/03/30 00:07:18;;;;;;;4.25;1.92;;;;;;;12.69;65.37;100559.03;5122315;28;20055;-66
2023/03/30 00:09:46;;;;;;;3.35;1.60;;;;;;;12.69;65.29;100558.22;5117397;28;20131;-66
2023/03/30 00:12:19;;;;;;;4.20;2.03;;;;;;;12.65;65.06;100551.66;5123235;28;20062;-66
2023/03/30 00:14:49;;;;;;;3.20;1.52;;;;;;;12.68;65.14;100556.56;5112817;28;20041;-66
2023/03/30 00:17:17;;;;;;;6.40;2.60;;;;;;;12.69;65.29;100552.81;5113853;28;20062;-66
2023/03/30 00:19:45;;;;;;;3.97;1.75;;;;;;;12.68;65.32;100553.88;5123112;28;20472;-66
2023/03/30 00:22:12;;;;;;;3.95;1.77;;;;;;;12.68;64.87;100553.88;5121026;28;20051;-66
2023/03/30 00:24:40;;;;;;;2.70;1.35;;;;;;;12.67;64.86;100546.84;5119438;28;20063;-66
2023/03/30 00:27:08;;;;;;;4.88;2.15;;;;;;;12.67;64.79;100534.19;5113979;28;20147;-66
2023/03/30 00:29:36;;;;;;;3.22;1.73;;;;;;;12.67;64.78;100525.28;5120817;28;20053;-66
2023/03/30 00:32:06;;;;;;;3.40;1.73;;;;;;;12.68;64.76;100529.63;5121163;28;20351;-66
2023/03/30 00:34:34;;;;;;;7.32;2.00;;;;;;;12.68;64.67;100540.41;5121499;28;20058;-66
2023/03/30 00:37:03;;;;;;;5.68;1.73;;;;;;;12.66;64.78;100540.63;5118797;28;20082;-66
2023/03/30 00:39:30;;;;;;;9.10;2.38;;;;;;;12.66;64.99;100540.63;5121051;28;20166;-66
2023/03/30 00:41:58;;;;;;;6.40;1.70;;;;;;;12.67;64.69;100536.06;5119995;28;20134;-66
2023/03/30 00:45:03;;;;;;;2.88;1.75;;;;;;;12.66;64.76;100519.06;5109406;28;20043;-66
2023/03/30 00:47:33;;;;;;;4.03;1.55;;;;;;;12.66;65.07;100518.25;5119486;28;20055;-66
2023/03/30 00:50:02;;;;;;;3.33;1.95;;;;;;;12.65;65.03;100511.22;5121328;28;20040;-66
2023/03/30 00:52:32;;;;;;;3.40;1.63;;;;;;;12.64;65.00;100510.41;5120713;28;20143;-66
2023/03/30 00:54:59;;;;;;;3.35;1.60;;;;;;;12.64;64.98;100496.94;5114772;28;20046;-66
2023/03/30 00:57:28;;;;;;;3.63;1.70;;;;;;;12.63;64.98;100494.47;5120353;28;20178;-66
2023/03/30 00:59:56;;;;;;;5.07;2.20;;;;;;;12.64;64.83;100472.66;5114739;28;20040;-64
2023/03/30 01:02:24;;;;;;;5.05;1.83;;;;;;;12.64;64.74;100482.63;5117505;28;20055;-66
2023/03/30 01:04:57;;;;;;;5.70;2.15;;;;;;;12.65;64.65;100478.88;5117791;27;20047;-66
2023/03/30 01:07:25;;;;;;;3.78;1.70;;;;;;;12.64;64.89;100488.03;5119041;28;20054;-66
2023/03/30 01:09:54;;;;;;;4.80;1.50;;;;;;;12.62;64.62;100474.78;5119986;28;20123;-66
2023/03/30 01:12:22;;;;;;;3.80;1.80;;;;;;;12.62;64.70;100482.06;5120155;28;20045;-66
2023/03/30 01:14:50;;;;;;;2.70;1.50;;;;;;;12.54;64.70;100466.28;5113982;28;20127;-66
2023/03/30 01:17:29;;;;;;;4.18;1.88;;;;;;;12.62;64.86;100487.44;5117811;28;20234;-66
2023/03/30 01:20:34;;;;;;;6.57;2.47;;;;;;;12.59;64.91;100477.97;5117872;28;20101;-66
2023/03/30 01:23:36;;;;;;;3.67;1.50;;;;;;;12.61;64.74;100491.22;5112555;28;20047;-66
2023/03/30 01:26:44;;;;;;;3.15;1.55;;;;;;;12.60;64.78;100492.25;5114623;28;20080;-66
2023/03/30 01:29:17;;;;;;;;;;;;;;;12.60;64.66;100492.25;5119393;28;20067;-66
2023/03/30 01:32:22;;;;;;;2.67;1.38;;;;;;;12.59;64.85;100488.75;5118684;28;19926;-66
2023/03/30 01:35:09;;;;;;;3.35;1.70;;;;;;;12.59;64.61;100488.75;5121092;28;20043;-66
2023/03/30 01:37:57;;;;;;;;;;;;;;;12.60;64.70;100489.56;5117502;28;20048;-66
2023/03/30 01:40:32;;;;;;;4.68;1.80;;;;;;;12.58;65.10;100473.63;5109711;28;19930;-66
2023/03/30 01:43:09;;;;;;;6.10;1.70;;;;;;;12.58;64.92;100483.59;5120263;28;20075;-66
2023/03/30 01:45:44;;;;;;;6.28;1.58;;;;;;;12.57;64.59;100480.09;5114473;28;20064;-65
2023/03/30 01:48:17;;;;;;;3.33;1.38;;;;;;;12.58;64.99;100470.13;5110271;28;20522;-66
2023/03/30 01:50:51;;;;;;;4.72;1.42;;;;;;;12.55;64.60;100460.66;5115888;28;20047;-66
2023/03/30 01:53:25;;;;;;;3.88;1.70;;;;;;;12.53;64.53;100464.66;5120118;28;20449;-66
2023/03/30 01:56:00;;;;;;;3.17;1.60;;;;;;;12.57;64.93;100481.97;5121147;28;20044;-66
2023/03/30 01:58:33;;;;;;;2.55;1.77;;;;;;;12.55;64.73;100484.09;5109004;28;20136;-66
2023/03/30 02:01:04;;;;;;;4.13;1.80;;;;;;;12.53;64.89;100481.63;5120839;28;20048;-66
2023/03/30 02:03:36;;;;;;;3.22;1.30;;;;;;;12.53;64.75;100489.72;5120608;28;20524;-66
2023/03/30 02:06:10;;;;;;;3.00;1.50;;;;;;;12.53;64.61;100488.91;5117632;28;20050;-66
2023/03/30 02:08:40;;;;;;;4.20;1.40;;;;;;;12.53;64.55;100491.59;5111575;28;20039;-66
2023/03/30 02:11:10;;;;;;;3.63;1.70;;;;;;;12.52;65.01;100489.97;5118650;28;20051;-66
2023/03/30 02:13:40;;;;;;;3.00;1.42;;;;;;;12.50;64.65;100482.13;5108586;28;20055;-66
2023/03/30 02:16:15;;;;;;;5.50;1.75;;;;;;;12.52;64.98;100479.19;5121233;28;20453;-66
2023/03/30 02:18:43;;;;;;;4.25;1.75;;;;;;;12.51;64.63;100472.97;5113187;28;20073;-66
2023/03/30 02:21:11;;;;;;;4.70;1.60;;;;;;;12.51;64.44;100464.06;5121528;28;20047;-66
2023/03/30 02:23:44;;;;;;;4.70;1.92;;;;;;;12.52;64.91;100471.09;5118622;28;20050;-66
2023/03/30 02:26:14;;;;;;;3.55;1.85;;;;;;;12.52;64.59;100473.78;5110440;28;20103;-66
2023/03/30 02:28:42;;;;;;;4.13;1.65;;;;;;;12.51;64.56;100459.50;5114274;28;20047;-66
2023/03/30 02:31:12;;;;;;;10.23;1.60;;;;;;;12.51;64.93;100470.28;5118990;28;20044;-66
2023/03/30 02:33:55;;;;;;;4.03;2.33;;;;;;;12.52;64.68;100473.78;5116319;28;20040;-66
2023/03/30 02:36:40;;;;;;;5.22;1.75;;;;;;;12.50;64.45;100463.25;5113940;28;20092;-66
2023/03/30 02:39:28;;;;;;;4.13;2.00;;;;;;;12.52;64.49;100473.78;5114329;28;20074;-65
2023/03/30 02:42:18;;;;;;;3.45;1.50;;;;;;;12.48;64.80;100468.06;5119334;28;20082;-66
2023/03/30 02:44:57;;;;;;;6.88;2.00;;;;;;;12.53;64.56;100478.94;5118551;28;20049;-66
2023/03/30 02:47:36;;;;;;;3.30;1.33;;;;;;;12.52;64.64;100477.31;5116928;28;20123;-66
2023/03/30 02:50:10;;;;;;;3.45;1.77;;;;;;;12.52;64.38;100474.63;5119629;28;20047;-66
2023/03/30 02:52:48;;;;;;;4.53;1.60;;;;;;;12.46;64.50;100454.03;5117499;28;20071;-66
2023/03/30 02:55:21;;;;;;;5.80;1.40;;;;;;;12.52;64.29;100471.91;5118629;28;20043;-66
2023/03/30 02:57:57;;;;;;;3.00;1.67;;;;;;;12.51;64.51;100466.78;5119392;28;20042;-66
2023/03/30 03:00:29;;;;;;;;;;;;;;;12.51;64.59;100461.38;5118196;28;20058;-66
2023/03/30 03:03:02;;;;;;;4.47;1.40;;;;;;;12.51;64.70;100458.69;5115693;28;20018;-66
2023/03/30 03:05:31;;;;;;;3.30;1.38;;;;;;;12.51;64.50;100456.00;5120465;28;20078;-66
2023/03/30 03:07:59;;;;;;;4.82;1.67;;;;;;;12.49;64.48;100452.72;5113803;28;20289;-66
2023/03/30 03:10:27;;;;;;;6.15;1.42;;;;;;;12.41;64.65;100445.03;5118569;28;20461;-66
2023/03/30 03:12:56;;;;;;;3.00;1.55;;;;;;;12.48;64.34;100454.59;5117778;28;20044;-66
2023/03/30 03:15:24;;;;;;;4.07;1.63;;;;;;;12.49;64.69;100460.81;5116237;28;20067;-66
2023/03/30 03:17:51;;;;;;;6.68;1.80;;;;;;;12.48;64.64;100462.69;5107045;28;20039;-66
2023/03/30 03:20:19;;;;;;;1.92;1.30;;;;;;;12.48;64.39;100451.91;5119401;28;20107;-66
2023/03/30 03:22:47;;;;;;;3.47;1.50;;;;;;;12.48;64.73;100445.69;5120991;28;20051;-66
2023/03/30 03:25:15;;;;;;;6.28;1.35;;;;;;;12.48;64.74;100443.81;5121849;28;20303;-66
2023/03/30 03:27:43;;;;;;;3.72;1.60;;;;;;;12.47;64.40;100457.53;5124367;28;20080;-66
2023/03/30 03:30:13;;;;;;;3.13;1.52;;;;;;;12.47;64.54;100450.28;5121900;28;20051;-66
2023/03/30 03:32:41;;;;;;;5.50;1.75;;;;;;;12.47;64.36;100447.56;5119111;28;20036;-66
2023/03/30 03:35:09;;;;;;;4.43;1.33;;;;;;;12.39;64.36;100435.31;5123796;28;20043;-66
2023/03/30 03:37:37;;;;;;;4.55;1.50;;;;;;;12.49;64.55;100447.34;5122981;28;20059;-66
2023/03/30 03:40:07;;;;;;;3.90;1.60;;;;;;;12.47;64.49;100442.19;5123023;28;20075;-66
2023/03/30 03:42:34;;;;;;;7.75;2.10;;;;;;;12.48;64.42;100445.69;5120433;28;20051;-66
2023/03/30 03:45:02;;;;;;;2.40;1.42;;;;;;;12.48;64.65;100446.50;5122514;28;20054;-66
2023/03/30 03:47:33;;;;;;;2.78;1.25;;;;;;;12.48;64.59;100446.50;5123666;28;20079;-66
2023/03/30 03:50:02;;;;;;;2.90;1.60;;;;;;;12.48;64.74;100440.31;5120903;28;20043;-66
2023/03/30 03:52:31;;;;;;;4.57;1.42;;;;;;;12.47;64.62;100426.00;5124093;28;20055;-66
2023/03/30 03:54:58;;;;;;;2.55;1.42;;;;;;;12.47;64.65;100435.97;5122855;28;20135;-66
2023/03/30 03:57:26;;;;;;;5.75;1.83;;;;;;;12.48;64.22;100434.91;5121045;28;20104;-66
2023/03/30 03:59:58;;;;;;;4.00;1.55;;;;;;;12.48;64.61;100424.13;5119026;28;20444;-66
2023/03/30 04:02:26;;;;;;;8.85;1.60;;;;;;;12.49;64.32;100431.16;5123415;28;20134;-66
2023/03/30 04:04:56;;;;;;;3.22;1.15;;;;;;;12.49;64.71;100431.16;5116901;28;20092;-66
2023/03/30 04:07:24;;;;;;;4.75;1.70;;;;;;;12.49;64.31;100429.28;5114488;28;20139;-66
2023/03/30 04:09:52;;;;;;;2.13;1.33;;;;;;;12.51;64.29;100418.25;5115277;28;20067;-66
2023/03/30 04:12:20;;;;;;;5.90;1.85;;;;;;;12.50;64.15;100409.34;5123746;28;20645;-66
2023/03/30 04:14:47;;;;;;;2.17;1.30;;;;;;;12.51;64.39;100426.34;5121458;28;20130;-66
2023/03/30 04:17:15;;;;;;;3.42;1.60;;;;;;;12.50;64.14;100422.00;5114406;28;20134;-66
2023/03/30 04:19:44;;;;;;;3.10;1.60;;;;;;;12.53;64.23;100418.81;5121777;28;20108;-66
2023/03/30 04:22:13;;;;;;;5.47;1.30;;;;;;;12.53;63.70;100419.66;5117530;28;20378;-66
2023/03/30 04:24:43;;;;;;;4.18;1.45;;;;;;;12.53;63.88;100421.53;5120611;28;20044;-66
2023/03/30 04:27:15;;;;;;;3.30;1.30;;;;;;;12.52;63.76;100415.31;5120425;28;20111;-66
2023/03/30 04:29:43;;;;;;;4.40;1.45;;;;;;;12.52;63.96;100401.03;5113130;28;20039;-66
2023/03/30 04:32:11;;;;;;;4.22;1.58;;;;;;;12.51;64.17;100407.47;5122503;28;20483;-66
2023/03/30 04:34:41;;;;;;;3.80;1.58;;;;;;;12.51;64.29;100405.59;5115547;28;20093;-66
2023/03/30 04:37:09;;;;;;;3.15;1.17;;;;;;;12.51;63.86;100408.28;5123369;28;20054;-66
2023/03/30 04:39:38;;;;;;;4.18;1.48;;;;;;;12.44;63.99;100390.66;5116521;28;20048;-66
2023/03/30 04:42:06;;;;;;;3.85;1.63;;;;;;;12.50;63.97;100392.38;5121537;28;20046;-66
2023/03/30 04:44:34;;;;;;;2.47;1.20;;;;;;;12.51;64.43;100399.38;5122063;28;20202;-66
2023/03/30 04:47:02;;;;;;;6.15;2.00;;;;;;;12.51;64.06;100402.09;5119896;28;20036;-66
2023/03/30 04:49:30;;;;;;;4.97;1.75;;;;;;;12.50;64.51;100400.44;5121802;28;20107;-66
2023/03/30 04:51:57;;;;;;;2.75;1.45;;;;;;;12.48;64.53;100403.38;5105819;28;20091;-66
2023/03/30 04:54:25;;;;;;;4.55;1.08;;;;;;;12.49;64.55;100401.50;5114423;28;20527;-66
2023/03/30 04:56:55;;;;;;;4.18;1.30;;;;;;;12.49;64.13;100404.22;5116342;28;20071;-65
2023/03/30 04:59:22;;;;;;;4.65;1.65;;;;;;;12.52;64.49;100391.06;5117862;28;20110;-65
2023/03/30 05:01:50;;;;;;;6.40;1.60;;;;;;;12.53;64.03;100387.28;5119379;28;20051;-65
2023/03/30 05:04:18;;;;;;;5.53;2.00;;;;;;;12.52;64.05;100398.31;5112039;28;20162;-66
2023/03/30 05:06:48;;;;;;;3.53;1.42;;;;;;;12.51;64.56;100394.00;5115119;28;20044;-65
2023/03/30 05:09:16;;;;;;;3.88;1.60;;;;;;;12.49;64.14;100398.81;5121685;28;20054;-67
2023/03/30 05:11:44;;;;;;;2.33;1.35;;;;;;;12.48;64.25;100398.00;5120444;28;20047;-66
2023/03/30 05:14:14;;;;;;;4.72;1.38;;;;;;;12.49;64.37;100402.31;5114139;28;20410;-65
2023/03/30 05:16:42;;;;;;;4.28;1.30;;;;;;;12.50;64.29;100405.84;5118993;28;20516;-66
2023/03/30 05:19:10;;;;;;;4.93;1.55;;;;;;;12.50;64.34;100408.53;5116913;28;20230;-66
2023/03/30 05:21:38;;;;;;;3.28;1.40;;;;;;;12.49;64.21;100423.88;5110671;28;20122;-66
2023/03/30 05:24:06;;;;;;;3.58;1.20;;;;;;;12.52;64.25;100418.00;5121319;28;20048;-64
2023/03/30 05:26:34;;;;;;;3.00;1.35;;;;;;;12.51;64.50;100413.69;5115536;28;20059;-66
2023/03/30 05:29:02;;;;;;;5.55;2.00;;;;;;;12.52;64.44;100425.28;5108386;28;20040;-63
2023/03/30 05:31:31;;;;;;;9.82;1.73;;;;;;;12.51;64.35;100426.34;5116098;28;20043;-65
2023/03/30 05:33:59;;;;;;;3.78;1.45;;;;;;;12.52;64.25;100425.28;5117765;28;20051;-66
2023/03/30 05:36:27;;;;;;;11.18;2.17;;;;;;;12.51;64.20;100443.34;5120625;28;20051;-67
2023/03/30 05:38:55;;;;;;;4.65;1.65;;;;;;;12.45;64.48;100436.22;5115018;28;20076;-65
2023/03/30 05:41:22;;;;;;;3.55;1.45;;;;;;;12.45;64.24;100444.31;5120349;28;20044;-66
2023/03/30 05:43:50;;;;;;;3.75;1.30;;;;;;;12.52;64.35;100444.97;5116500;28;20119;-66
2023/03/30 05:46:18;;;;;;;5.02;1.50;;;;;;;12.52;64.57;100466.53;4761822;28;10000816;-66
2023/03/30 05:48:47;;;;;;;4.18;1.23;;;;;;;12.52;64.96;100469.22;5119096;28;20047;-66
2023/03/30 05:51:15;;;;;;;4.60;1.83;;;;;;;12.45;65.37;100462.34;5116071;28;20409;-66
2023/03/30 05:53:44;;;;;;;5.57;1.70;;;;;;;12.52;65.83;100473.78;5107867;28;20083;-65
2023/03/30 05:56:11;;;;;;;6.20;1.70;;;;;;;12.49;66.52;100468.91;5113732;28;20126;-65
2023/03/30 05:58:39;;;;;;;6.25;1.90;;;;;;;12.48;67.75;100476.16;5114789;28;20051;-65
2023/03/30 06:01:08;;;;;;;4.15;1.90;;;;;;;12.39;68.17;100456.88;5117573;28;20055;-66
2023/03/30 06:03:37;;;;;;;4.85;1.88;;;;;;;12.47;68.17;100484.50;5119664;28;20066;-66
2023/03/30 06:06:07;;;;;;;4.32;1.60;;;;;;;12.45;68.52;100494.69;5116367;28;20116;-65
2023/03/30 06:08:35;;;;;;;7.28;2.15;;;;;;;12.44;69.01;100495.75;5111125;28;20039;-65
2023/03/30 06:11:03;;;;;;;6.82;2.58;;;;;;;12.43;69.53;100504.91;5117191;28;20052;-66
2023/03/30 06:13:32;;;;;;;4.50;1.85;;;;;;;12.42;69.47;100511.34;5107989;28;20056;-65
2023/03/30 06:15:59;;;;;;;12.98;3.15;;;;;;;12.40;69.23;100508.91;5120585;28;20044;-65
2023/03/30 06:18:30;;;;;;;8.23;2.67;;;;;;;12.38;69.31;100513.72;5121888;28;20058;-65
2023/03/30 06:21:01;;;;;;;6.20;2.38;;;;;;;12.38;69.49;100519.91;5122274;28;20093;-65
2023/03/30 06:23:31;;;;;;;7.40;1.77;;;;;;;12.38;69.30;100529.88;5117165;28;20047;-65
2023/03/30 06:25:58;;;;;;;5.05;2.60;;;;;;;12.37;69.54;100526.38;5120115;28;20210;-64
2023/03/30 06:28:27;;;;;;;7.43;2.47;;;;;;;12.37;69.34;100534.47;5119220;28;20071;-65
2023/03/30 06:30:55;;;;;;;4.03;2.35;;;;;;;12.36;69.39;100540.91;5120294;28;20055;-66
2023/03/30 06:33:24;;;;;;;4.45;1.98;;;;;;;12.38;69.16;100529.88;5118529;28;20274;-65
2023/03/30 06:35:53;;;;;;;8.27;2.25;;;;;;;12.36;68.95;100521.22;5121963;28;20042;-64
2023/03/30 06:38:22;;;;;;;6.47;1.90;;;;;;;12.34;69.81;100534.13;5116412;28;20043;-64
2023/03/30 06:40:51;;;;;;;5.57;2.30;;;;;;;12.28;70.37;100525.13;5121807;28;20058;-64
2023/03/30 06:43:21;;;;;;;8.27;2.25;;;;;;;12.29;70.26;100528.63;5119953;28;20208;-64
2023/03/30 06:45:52;;;;;;;6.75;2.60;;;;;;;12.30;69.77;100523.00;5112524;28;20109;-64
2023/03/30 06:48:22;;;;;;;8.73;3.00;;;;;;;12.30;70.25;100523.00;5119057;28;20051;-64
2023/03/30 06:50:51;;;;;;;8.32;2.28;;;;;;;12.31;69.78;100519.25;5121764;28;20051;-65
2023/03/30 06:53:19;;;;;;;4.97;2.33;;;;;;;12.31;69.97;100516.56;5112138;28;20048;-64
2023/03/30 06:55:53;;;;;;;8.38;2.00;;;;;;;12.34;69.97;100517.94;5121958;28;20043;-64
2023/03/30 06:58:21;;;;;;;9.55;2.58;;;;;;;12.38;69.54;100524.50;5117032;28;20040;-64
2023/03/30 07:00:49;;;;;;;6.05;2.15;;;;;;;12.42;69.45;100522.13;5120359;28;20178;-63
2023/03/30 07:03:18;;;;;;;4.97;1.88;;;;;;;12.45;69.64;100529.75;5119041;28;20047;-63
2023/03/30 07:05:47;;;;;;;6.65;2.20;;;;;;;12.47;70.18;100520.34;5113598;28;20073;-63
2023/03/30 07:08:15;;;;;;;8.05;2.38;;;;;;;12.49;70.18;100523.63;5111346;28;20123;-63
2023/03/30 07:10:42;;;;;;;11.05;2.85;;;;;;;12.52;69.80;100527.72;5108015;28;20122;-65
2023/03/30 07:13:12;;;;;;;13.65;2.63;;;;;;;12.57;69.42;100530.50;5110397;28;20082;-61
2023/03/30 07:15:39;;;;;;;5.78;1.60;;;;;;;12.56;69.64;100529.69;5111542;28;20079;-63
2023/03/30 07:18:07;;;;;;;5.10;2.33;;;;;;;12.59;69.90;100531.88;5111801;28;20545;-63
2023/03/30 07:20:35;;;;;;;6.55;2.50;;;;;;;12.62;69.65;100535.97;5113870;28;20043;-62
2023/03/30 07:23:03;;;;;;;5.78;2.17;;;;;;;12.63;69.69;100540.31;5110789;28;20051;-65
2023/03/30 07:25:31;;;;;;;9.18;2.30;;;;;;;12.63;69.51;100538.44;5112000;28;20045;-64
2023/03/30 07:28:00;;;;;;;10.50;2.08;;;;;;;12.64;69.64;100541.94;5111936;28;20071;-65
2023/03/30 07:30:30;;;;;;;5.65;2.22;;;;;;;12.66;69.59;100545.22;5111168;28;20035;-63
2023/03/30 07:32:58;;;;;;;8.82;2.60;;;;;;;12.69;69.35;100552.81;5116403;28;20051;-64
2023/03/30 07:35:26;;;;;;;9.48;2.05;;;;;;;12.76;69.52;100547.28;5116023;28;20108;-67
2023/03/30 07:37:54;;;;;;;6.47;1.83;;;;;;;12.75;69.31;100546.47;5112431;28;20083;-64
2023/03/30 07:40:30;;;;;;;4.70;2.20;;;;;;;12.78;69.40;100547.84;5112439;28;20071;-64
2023/03/30 07:42:58;;;;;;;4.78;1.75;;;;;;;12.80;69.28;100548.41;5112735;28;20523;-64
2023/03/30 07:45:26;;;;;;;10.70;2.35;;;;;;;12.83;69.27;100546.06;5111952;28;20078;-63
2023/03/30 07:47:55;;;;;;;10.57;2.78;;;;;;;12.82;68.88;100539.03;5111978;28;20531;-64
2023/03/30 07:50:24;;;;;;;5.22;1.67;;;;;;;12.83;69.12;100551.44;5115896;28;20044;-64
2023/03/30 07:52:52;;;;;;;5.65;1.70;;;;;;;12.84;68.84;100558.47;5113108;28;20065;-62
2023/03/30 07:55:20;;;;;;;8.52;1.88;;;;;;;12.75;69.44;100554.53;5111209;28;20146;-64
2023/03/30 07:57:48;;;;;;;6.85;2.35;;;;;;;12.78;69.05;100555.94;5110278;28;20418;-63
2023/03/30 08:00:16;;;;;;;10.13;2.15;;;;;;;12.81;69.06;100566.25;5110620;28;20044;-63
2023/03/30 08:02:44;;;;;;;9.95;2.75;;;;;;;12.84;69.22;100555.78;5109814;28;20115;-63
2023/03/30 08:05:14;;;;;;;7.93;2.28;;;;;;;12.97;68.87;100555.47;5110490;28;20059;-63
2023/03/30 08:07:42;;;;;;;13.13;2.55;;;;;;;13.08;68.00;100569.94;5110842;28;20123;-64
2023/03/30 08:10:11;;;;;;;6.72;2.00;;;;;;;13.20;67.67;100572.59;5113409;28;20662;-68
2023/03/30 08:12:39;;;;;;;9.93;2.80;;;;;;;13.51;66.96;100563.06;5119044;28;20539;-66
2023/03/30 08:15:09;;;;;;;7.80;2.40;;;;;;;13.70;65.72;100579.81;5116133;28;20051;-63
2023/03/30 08:17:36;;;;;;;9.13;2.25;;;;;;;13.76;65.59;100573.41;5114726;28;20076;-60
2023/03/30 08:20:09;;;;;;;12.27;3.40;;;;;;;13.73;65.48;100582.84;5115796;28;20086;-65
2023/03/30 08:22:38;;;;;;;9.52;2.80;;;;;;;13.65;65.52;100580.56;5115107;28;20050;-65
2023/03/30 08:25:07;;;;;;;6.72;1.95;;;;;;;13.66;65.76;100593.00;5115928;28;20067;-63
2023/03/30 08:27:35;;;;;;;12.57;3.17;;;;;;;13.53;66.06;100586.06;5115857;28;20074;-64
2023/03/30 08:30:03;;;;;;;10.15;2.28;;;;;;;13.40;66.14;100585.59;5115645;28;20047;-65
2023/03/30 08:32:31;;;;;;;14.38;2.75;;;;;;;13.31;66.40;100585.19;5113352;28;20055;-65
2023/03/30 08:34:59;;;;;;;14.15;2.20;;;;;;;13.29;66.13;100590.00;5116677;28;20108;-65
2023/03/30 08:37:26;;;;;;;8.80;2.78;;;;;;;13.28;66.62;100594.59;5120537;28;20047;-66
2023/03/30 08:39:56;;;;;;;15.00;3.10;;;;;;;13.28;66.37;100591.06;5115165;28;20764;-66
2023/03/30 08:42:48;;;;;;;9.95;2.63;;;;;;;13.24;66.13;100596.13;5124146;28;20054;-66
2023/03/30 08:45:17;;;;;;;14.73;4.18;;;;;;;13.18;66.00;100596.31;5121777;28;20052;-67
2023/03/30 08:47:49;;;;;;;16.38;2.90;;;;;;;13.28;66.37;100589.19;5113367;28;20062;-66
2023/03/30 08:50:22;;;;;;;11.65;2.28;;;;;;;13.34;66.35;100590.91;5112166;28;20093;-69
2023/03/30 08:52:51;;;;;;;10.43;2.80;;;;;;;13.23;66.14;100590.97;5121714;28;20043;-68
2023/03/30 08:55:28;;;;;;;8.25;2.85;;;;;;;13.14;65.80;100603.22;5116990;28;20107;-64
2023/03/30 08:57:59;;;;;;;14.25;3.38;;;;;;;13.18;66.41;100599.00;5114290;28;20043;-63
2023/03/30 09:00:36;;;;;;;12.80;2.72;;;;;;;13.12;66.00;100586.44;5121157;28;20036;-63
2023/03/30 09:03:16;;;;;;;11.82;3.53;;;;;;;13.15;66.11;100581.38;5121960;28;20048;-63
2023/03/30 09:05:49;;;;;;;12.77;2.78;;;;;;;13.13;65.99;100577.28;5120791;28;20140;-63
2023/03/30 09:08:21;;;;;;;20.20;4.50;;;;;;;13.07;65.42;100586.38;5104264;28;20040;-63
2023/03/30 09:10:56;;;;;;;14.35;2.85;;;;;;;13.26;65.51;100602.09;5117674;28;20060;-63
2023/03/30 09:13:28;;;;;;;17.20;3.15;;;;;;;13.14;65.58;100597.81;5122481;28;20066;-65
2023/03/30 09:16:01;;;;;;;10.20;3.20;;;;;;;13.09;65.14;100601.25;5113898;28;20071;-64
2023/03/30 09:18:31;;;;;;;19.02;3.58;;;;;;;13.17;64.93;100613.56;5112901;28;20077;-64
2023/03/30 09:21:00;;;;;;;13.07;3.65;;;;;;;13.10;65.20;100619.06;5118945;28;20153;-64
2023/03/30 09:23:30;;;;;;;9.88;2.30;;;;;;;13.10;65.30;100629.06;5110145;28;20085;-64
2023/03/30 09:26:10;;;;;;;17.45;3.08;;;;;;;13.07;64.70;100619.56;5116244;28;20127;-64
2023/03/30 09:28:44;;;;;;;15.90;2.85;;;;;;;13.05;64.53;100621.69;5114006;28;20093;-65
2023/03/30 09:31:17;;;;;;;14.55;2.97;;;;;;;13.03;64.75;100643.50;5112711;28;20051;-64
2023/03/30 09:33:56;;;;;;;17.48;3.30;;;;;;;13.08;64.33;100644.66;5112407;28;20131;-63
2023/03/30 09:36:30;;;;;;;18.08;4.35;;;;;;;13.09;64.67;100635.50;5113472;28;20074;-63
2023/03/30 09:38:57;;;;;;;13.82;3.10;;;;;;;13.11;64.33;100647.69;5115040;28;20107;-63
2023/03/30 09:41:51;;;;;;;18.80;3.97;;;;;;;13.13;63.87;100634.78;5114754;28;20079;-62
2023/03/30 09:44:23;;;;;;;15.65;3.17;;;;;;;13.09;64.35;100635.50;5112063;28;20048;-63
2023/03/30 09:46:57;;;;;;;18.17;3.03;;;;;;;13.07;64.86;100661.91;5112867;28;20074;-63
2023/03/30 09:49:27;;;;;;;15.40;3.58;;;;;;;13.11;64.57;100646.88;5111288;28;20039;-63
2023/03/30 09:52:01;;;;;;;12.45;3.08;;;;;;;13.08;64.10;100637.38;5112698;28;20059;-63
2023/03/30 09:54:36;;;;;;;16.00;3.42;;;;;;;13.16;64.49;100642.41;5114187;28;20063;-66
2023/03/30 09:57:06;;;;;;;14.52;3.85;;;;;;;13.34;64.99;100657.56;5113228;28;20062;-64
2023/03/30 09:59:36;;;;;;;19.10;3.17;;;;;;;13.38;64.15;100653.31;5116062;28;20055;-65
2023/03/30 10:02:18;;;;;;;20.83;3.58;;;;;;;13.28;63.69;100658.53;5106295;28;20564;-63
2023/03/30 10:04:56;;;;;;;20.10;4.07;;;;;;;13.20;64.16;100653.53;5120791;28;20055;-63
2023/03/30 10:07:26;;;;;;;14.63;3.40;;;;;;;13.16;64.10;100663.16;5108157;28;20040;-63
2023/03/30 10:09:55;;;;;;;23.63;3.88;;;;;;;13.16;64.44;100653.22;5120011;28;20125;-63
2023/03/30 10:12:26;;;;;;;16.65;2.85;;;;;;;13.16;64.30;100666.69;5121060;28;20067;-63
2023/03/30 10:14:55;;;;;;;19.67;3.92;;;;;;;13.23;64.02;100664.66;5116260;28;20040;-63
2023/03/30 10:17:25;;;;;;;19.25;4.20;;;;;;;13.22;64.43;100652.22;5118644;28;20052;-63
2023/03/30 10:19:54;;;;;;;14.80;4.07;;;;;;;13.23;63.73;100653.88;5117562;28;20055;-63
2023/03/30 10:22:50;;;;;;;17.27;3.28;;;;;;;13.19;63.04;100666.22;5117822;28;20083;-63
2023/03/30 10:25:22;;;;;;;18.85;3.75;;;;;;;13.19;63.06;100662.69;5121127;28;20078;-63
2023/03/30 10:27:55;;;;;;;21.45;4.00;;;;;;;13.28;63.79;100663.94;5113574;28;20162;-63
2023/03/30 10:30:24;;;;;;;18.60;3.60;;;;;;;13.21;62.92;100653.31;5121117;28;20054;-63
2023/03/30 10:32:55;;;;;;;22.55;4.10;;;;;;;13.28;63.22;100658.53;5118702;28;20078;-63
2023/03/30 10:35:26;;;;;;;19.42;4.28;;;;;;;13.24;63.31;100654.69;5121903;28;20532;-63
2023/03/30 10:37:57;;;;;;;20.70;4.05;;;;;;;13.25;63.23;100662.53;5118866;28;20107;-63
2023/03/30 10:40:27;;;;;;;15.25;3.63;;;;;;;13.27;63.25;100671.22;5121605;28;20071;-63
2023/03/30 10:42:58;;;;;;;17.15;3.78;;;;;;;13.32;63.40;100667.78;5118642;28;20058;-63
2023/03/30 10:45:29;;;;;;;13.80;3.65;;;;;;;13.30;63.47;100668.03;5105600;28;20392;-63
2023/03/30 10:48:09;;;;;;;18.60;4.15;;;;;;;13.31;63.46;100672.38;5115754;28;20611;-63
2023/03/30 10:50:45;;;;;;;11.10;2.75;;;;;;;13.29;63.20;100668.28;5121687;28;20035;-64
2023/03/30 10:53:26;;;;;;;17.60;3.65;;;;;;;13.33;62.52;100664.03;5119644;28;20159;-63
2023/03/30 10:56:00;;;;;;;11.15;3.25;;;;;;;13.34;62.52;100662.97;5119080;28;20099;-63
2023/03/30 10:58:48;;;;;;;12.55;3.13;;;;;;;13.37;62.29;100670.56;5117261;28;20057;-63
2023/03/30 11:01:21;;;;;;;14.07;3.20;;;;;;;13.35;61.26;100662.72;5107820;28;20066;-63
2023/03/30 11:03:54;;;;;;;12.55;2.92;;;;;;;13.38;62.19;100661.41;5108122;28;20071;-63
2023/03/30 11:06:26;;;;;;;17.67;3.70;;;;;;;13.35;61.62;100665.41;5118847;28;20044;-62
2023/03/30 11:08:58;;;;;;;11.48;3.63;;;;;;;13.37;62.00;100675.97;5104085;28;20043;-63
2023/03/30 11:11:33;;;;;;;15.70;3.28;;;;;;;13.40;62.20;100670.09;5113022;28;20058;-63
2023/03/30 11:14:07;;;;;;;18.83;4.28;;;;;;;13.38;62.03;100664.09;5106575;28;20062;-62
2023/03/30 11:16:46;;;;;;;19.40;3.55;;;;;;;13.34;62.20;100668.34;5117212;28;20083;-62
2023/03/30 11:19:20;;;;;;;15.70;2.85;;;;;;;13.36;62.30;100666.22;5113411;28;20047;-63
2023/03/30 11:21:57;;;;;;;13.70;3.47;;;;;;;13.37;62.52;100667.88;5114679;28;20055;-63
2023/03/30 11:24:27;;;;;;;17.77;3.47;;;;;;;13.38;62.34;100668.69;5119747;28;20134;-62
2023/03/30 11:27:00;;;;;;;9.60;2.63;;;;;;;13.39;62.87;100690.03;5118987;28;20147;-62
2023/03/30 11:29:38;;;;;;;10.95;3.15;;;;;;;13.41;64.07;100676.28;5113615;28;20073;-62
2023/03/30 11:32:23;;;;;;;12.57;3.50;;;;;;;13.41;64.28;100679.81;5120559;28;20050;-62
2023/03/30 11:34:59;;;;;;;10.07;2.25;;;;;;;13.49;64.20;100673.19;5115268;28;20180;-62
2023/03/30 11:37:31;;;;;;;9.10;2.40;;;;;;;13.46;64.66;100682.59;5119317;28;20063;-62
2023/03/30 11:40:10;;;;;;;19.58;3.35;;;;;;;13.48;64.97;100676.97;5115465;28;20452;-64
2023/03/30 11:42:38;;;;;;;8.20;2.20;;;;;;;13.45;64.92;100689.06;5120410;28;20079;-62
2023/03/30 11:45:18;;;;;;;7.72;1.92;;;;;;;13.54;65.35;100675.97;5110703;28;20079;-64